sensor_id;sensor_type;location;lat;lon;timestamp;P1;durP1;ratioP1;P2;durP2;ratioP2
9485;SDS011;4781;48.776;9.200;2023-05-10T00:00:49;1.98;;;0.82;;
9485;SDS011;4781;48.776;9.200;2023-05-10T00:03:17;2.00;;;0.95;;
9485;SDS011;4781;48.776;9.200;2023-05-10T00:05:44;5.65;;;1.00;;
9485;SDS011;4781;48.776;9.200;2023-05-10T00:08:12;1.82;;;0.90;;
9485;SDS011;4781;48.776;9.200;2023-05-10T00:10:40;1.42;;;0.80;;
9485;SDS011;4781;48.776;9.200;2023-05-10T00:13:07;1.42;;;0.78;;
9485;SDS011;4781;48.776;9.200;2023-05-10T00:15:35;1.02;;;0.68;;
9485;SDS011;4781;48.776;9.200;2023-05-10T00:18:02;1.00;;;0.70;;
9485;SDS011;4781;48.776;9.200;2023-05-10T00:20:30;0.85;;;0.60;;
9485;SDS011;4781;48.776;9.200;2023-05-10T00:22:57;0.60;;;0.50;;
9485;SDS011;4781;48.776;9.200;2023-05-10T00:25:25;0.82;;;0.50;;
9485;SDS011;4781;48.776;9.200;2023-05-10T00:27:53;0.90;;;0.70;;
9485;SDS011;4781;48.776;9.200;2023-05-10T00:30:22;0.57;;;0.40;;
9485;SDS011;4781;48.776;9.200;2023-05-10T00:32:50;1.90;;;0.70;;
9485;SDS011;4781;48.776;9.200;2023-05-10T00:35:20;0.90;;;0.60;;
9485;SDS011;4781;48.776;9.200;2023-05-10T00:37:48;0.60;;;0.42;;
9485;SDS011;4781;48.776;9.200;2023-05-10T00:40:16;1.62;;;0.50;;
9485;SDS011;4781;48.776;9.200;2023-05-10T00:42:43;0.50;;;0.45;;
9485;SDS011;4781;48.776;9.200;2023-05-10T00:45:11;0.30;;;0.30;;
9485;SDS011;4781;48.776;9.200;2023-05-10T00:47:39;4.37;;;0.50;;
9485;SDS011;4781;48.776;9.200;2023-05-10T00:50:07;1.05;;;0.60;;
9485;SDS011;4781;48.776;9.200;2023-05-10T00:52:35;0.45;;;0.30;;
9485;SDS011;4781;48.776;9.200;2023-05-10T00:55:03;1.75;;;0.42;;
9485;SDS011;4781;48.776;9.200;2023-05-10T00:57:31;0.68;;;0.40;;
9485;SDS011;4781;48.776;9.200;2023-05-10T00:59:59;0.95;;;0.57;;
9485;SDS011;4781;48.776;9.200;2023-05-10T01:02:28;1.05;;;0.60;;
9485;SDS011;4781;48.776;9.200;2023-05-10T01:04:56;4.35;;;0.40;;
9485;SDS011;4781;48.776;9.200;2023-05-10T01:07:23;3.22;;;0.45;;
9485;SDS011;4781;48.776;9.200;2023-05-10T01:09:51;0.55;;;0.30;;
9485;SDS011;4781;48.776;9.200;2023-05-10T01:12:19;0.60;;;0.40;;
9485;SDS011;4781;48.776;9.200;2023-05-10T01:14:47;1.42;;;0.60;;
9485;SDS011;4781;48.776;9.200;2023-05-10T01:17:15;0.30;;;0.30;;
9485;SDS011;4781;48.776;9.200;2023-05-10T01:19:43;0.37;;;0.37;;
9485;SDS011;4781;48.776;9.200;2023-05-10T01:33:41;1.07;;;0.50;;
9485;SDS011;4781;48.776;9.200;2023-05-10T01:36:05;0.45;;;0.45;;
9485;SDS011;4781;48.776;9.200;2023-05-10T01:38:56;0.50;;;0.40;;
9485;SDS011;4781;48.776;9.200;2023-05-10T01:41:45;0.85;;;0.45;;
9485;SDS011;4781;48.776;9.200;2023-05-10T01:47:31;0.42;;;0.40;;
9485;SDS011;4781;48.776;9.200;2023-05-10T01:50:15;0.53;;;0.42;;
9485;SDS011;4781;48.776;9.200;2023-05-10T01:52:41;0.55;;;0.40;;
9485;SDS011;4781;48.776;9.200;2023-05-10T01:55:15;0.98;;;0.40;;
9485;SDS011;4781;48.776;9.200;2023-05-10T01:57:48;0.60;;;0.40;;
9485;SDS011;4781;48.776;9.200;2023-05-10T02:00:13;0.87;;;0.40;;
9485;SDS011;4781;48.776;9.200;2023-05-10T02:02:46;0.60;;;0.40;;
9485;SDS011;4781;48.776;9.200;2023-05-10T02:05:16;0.82;;;0.50;;
9485;SDS011;4781;48.776;9.200;2023-05-10T02:07:45;0.60;;;0.50;;
9485;SDS011;4781;48.776;9.200;2023-05-10T02:10:13;0.82;;;0.50;;
9485;SDS011;4781;48.776;9.200;2023-05-10T02:12:43;0.62;;;0.45;;
9485;SDS011;4781;48.776;9.200;2023-05-10T02:15:15;0.60;;;0.50;;
9485;SDS011;4781;48.776;9.200;2023-05-10T02:17:44;0.62;;;0.50;;
9485;SDS011;4781;48.776;9.200;2023-05-10T02:20:14;2.22;;;0.50;;
9485;SDS011;4781;48.776;9.200;2023-05-10T02:22:45;0.75;;;0.53;;
9485;SDS011;4781;48.776;9.200;2023-05-10T02:25:15;0.85;;;0.47;;
9485;SDS011;4781;48.776;9.200;2023-05-10T02:27:46;1.20;;;0.60;;
9485;SDS011;4781;48.776;9.200;2023-05-10T02:30:15;0.70;;;0.40;;
9485;SDS011;4781;48.776;9.200;2023-05-10T02:32:44;1.30;;;0.45;;
9485;SDS011;4781;48.776;9.200;2023-05-10T02:35:12;0.50;;;0.40;;
9485;SDS011;4781;48.776;9.200;2023-05-10T02:37:40;1.15;;;0.40;;
9485;SDS011;4781;48.776;9.200;2023-05-10T02:40:09;1.47;;;0.55;;
9485;SDS011;4781;48.776;9.200;2023-05-10T02:42:42;1.10;;;0.50;;
9485;SDS011;4781;48.776;9.200;2023-05-10T02:45:12;0.47;;;0.40;;
9485;SDS011;4781;48.776;9.200;2023-05-10T02:47:46;2.05;;;0.50;;
9485;SDS011;4781;48.776;9.200;2023-05-10T02:50:14;3.15;;;0.60;;
9485;SDS011;4781;48.776;9.200;2023-05-10T02:52:51;0.88;;;0.60;;
9485;SDS011;4781;48.776;9.200;2023-05-10T02:55:25;0.98;;;0.50;;
9485;SDS011;4781;48.776;9.200;2023-05-10T02:58:13;0.42;;;0.40;;
9485;SDS011;4781;48.776;9.200;2023-05-10T03:00:40;0.85;;;0.50;;
9485;SDS011;4781;48.776;9.200;2023-05-10T03:03:08;1.20;;;0.57;;
9485;SDS011;4781;48.776;9.200;2023-05-10T03:05:36;0.57;;;0.42;;
9485;SDS011;4781;48.776;9.200;2023-05-10T03:08:03;0.45;;;0.40;;
9485;SDS011;4781;48.776;9.200;2023-05-10T03:10:32;0.50;;;0.50;;
9485;SDS011;4781;48.776;9.200;2023-05-10T03:13:12;0.90;;;0.50;;
9485;SDS011;4781;48.776;9.200;2023-05-10T03:15:51;0.70;;;0.50;;
9485;SDS011;4781;48.776;9.200;2023-05-10T03:18:33;0.50;;;0.40;;
9485;SDS011;4781;48.776;9.200;2023-05-10T03:21:06;0.70;;;0.50;;
9485;SDS011;4781;48.776;9.200;2023-05-10T03:23:34;1.25;;;0.60;;
9485;SDS011;4781;48.776;9.200;2023-05-10T03:26:02;1.15;;;0.60;;
9485;SDS011;4781;48.776;9.200;2023-05-10T03:28:31;0.78;;;0.60;;
9485;SDS011;4781;48.776;9.200;2023-05-10T03:30:59;1.65;;;0.80;;
9485;SDS011;4781;48.776;9.200;2023-05-10T03:33:28;1.07;;;0.60;;
9485;SDS011;4781;48.776;9.200;2023-05-10T03:35:56;1.55;;;0.78;;
9485;SDS011;4781;48.776;9.200;2023-05-10T03:38:23;1.27;;;0.80;;
9485;SDS011;4781;48.776;9.200;2023-05-10T03:40:51;1.10;;;0.65;;
9485;SDS011;4781;48.776;9.200;2023-05-10T03:43:18;1.87;;;0.90;;
9485;SDS011;4781;48.776;9.200;2023-05-10T03:45:46;1.27;;;0.60;;
9485;SDS011;4781;48.776;9.200;2023-05-10T03:48:18;1.30;;;0.85;;
9485;SDS011;4781;48.776;9.200;2023-05-10T03:50:45;1.10;;;0.70;;
9485;SDS011;4781;48.776;9.200;2023-05-10T03:53:15;2.47;;;0.80;;
9485;SDS011;4781;48.776;9.200;2023-05-10T03:55:42;2.67;;;0.80;;
9485;SDS011;4781;48.776;9.200;2023-05-10T03:58:10;1.07;;;0.70;;
9485;SDS011;4781;48.776;9.200;2023-05-10T04:00:38;1.50;;;0.80;;
9485;SDS011;4781;48.776;9.200;2023-05-10T04:03:07;1.95;;;0.90;;
9485;SDS011;4781;48.776;9.200;2023-05-10T04:05:35;2.52;;;1.00;;
9485;SDS011;4781;48.776;9.200;2023-05-10T04:08:03;2.02;;;0.95;;
9485;SDS011;4781;48.776;9.200;2023-05-10T04:10:31;1.30;;;0.80;;
9485;SDS011;4781;48.776;9.200;2023-05-10T04:12:59;1.20;;;0.78;;
9485;SDS011;4781;48.776;9.200;2023-05-10T04:15:26;1.90;;;0.90;;
9485;SDS011;4781;48.776;9.200;2023-05-10T04:17:54;1.25;;;0.85;;
9485;SDS011;4781;48.776;9.200;2023-05-10T04:20:22;1.75;;;1.00;;
9485;SDS011;4781;48.776;9.200;2023-05-10T04:22:51;1.50;;;0.90;;
9485;SDS011;4781;48.776;9.200;2023-05-10T04:25:19;1.20;;;0.82;;
9485;SDS011;4781;48.776;9.200;2023-05-10T04:27:47;1.70;;;0.95;;
9485;SDS011;4781;48.776;9.200;2023-05-10T04:30:14;1.97;;;0.90;;
9485;SDS011;4781;48.776;9.200;2023-05-10T04:32:42;1.72;;;0.88;;
9485;SDS011;4781;48.776;9.200;2023-05-10T04:35:09;1.82;;;1.00;;
9485;SDS011;4781;48.776;9.200;2023-05-10T04:37:37;1.55;;;0.90;;
9485;SDS011;4781;48.776;9.200;2023-05-10T04:40:05;1.67;;;0.98;;
9485;SDS011;4781;48.776;9.200;2023-05-10T04:42:33;2.00;;;0.90;;
9485;SDS011;4781;48.776;9.200;2023-05-10T04:45:01;5.85;;;1.45;;
9485;SDS011;4781;48.776;9.200;2023-05-10T04:47:28;1.67;;;0.90;;
9485;SDS011;4781;48.776;9.200;2023-05-10T04:49:56;3.15;;;1.15;;
9485;SDS011;4781;48.776;9.200;2023-05-10T04:52:24;1.62;;;0.98;;
9485;SDS011;4781;48.776;9.200;2023-05-10T04:54:51;2.37;;;1.05;;
9485;SDS011;4781;48.776;9.200;2023-05-10T04:57:19;2.30;;;1.00;;
9485;SDS011;4781;48.776;9.200;2023-05-10T04:59:47;1.82;;;1.00;;
9485;SDS011;4781;48.776;9.200;2023-05-10T05:02:15;2.10;;;1.07;;
9485;SDS011;4781;48.776;9.200;2023-05-10T05:04:42;2.65;;;1.20;;
9485;SDS011;4781;48.776;9.200;2023-05-10T05:07:10;3.02;;;1.10;;
9485;SDS011;4781;48.776;9.200;2023-05-10T05:09:37;1.60;;;0.90;;
9485;SDS011;4781;48.776;9.200;2023-05-10T05:12:05;4.85;;;1.00;;
9485;SDS011;4781;48.776;9.200;2023-05-10T05:14:33;1.72;;;0.90;;
9485;SDS011;4781;48.776;9.200;2023-05-10T05:17:00;1.72;;;1.00;;
9485;SDS011;4781;48.776;9.200;2023-05-10T05:19:30;1.92;;;1.00;;
9485;SDS011;4781;48.776;9.200;2023-05-10T05:21:58;2.95;;;1.30;;
9485;SDS011;4781;48.776;9.200;2023-05-10T05:24:25;3.10;;;1.62;;
9485;SDS011;4781;48.776;9.200;2023-05-10T05:26:53;1.62;;;1.00;;
9485;SDS011;4781;48.776;9.200;2023-05-10T05:29:21;2.55;;;0.90;;
9485;SDS011;4781;48.776;9.200;2023-05-10T05:31:48;2.05;;;1.02;;
9485;SDS011;4781;48.776;9.200;2023-05-10T05:34:16;1.85;;;0.90;;
9485;SDS011;4781;48.776;9.200;2023-05-10T05:36:43;2.47;;;1.05;;
9485;SDS011;4781;48.776;9.200;2023-05-10T05:39:11;2.40;;;1.10;;
9485;SDS011;4781;48.776;9.200;2023-05-10T05:41:39;2.12;;;1.05;;
9485;SDS011;4781;48.776;9.200;2023-05-10T05:44:06;1.55;;;0.90;;
9485;SDS011;4781;48.776;9.200;2023-05-10T05:46:34;1.98;;;1.00;;
9485;SDS011;4781;48.776;9.200;2023-05-10T05:49:01;2.35;;;1.20;;
9485;SDS011;4781;48.776;9.200;2023-05-10T05:51:29;1.87;;;1.02;;
9485;SDS011;4781;48.776;9.200;2023-05-10T05:53:57;3.55;;;1.30;;
9485;SDS011;4781;48.776;9.200;2023-05-10T05:56:24;2.70;;;1.12;;
9485;SDS011;4781;48.776;9.200;2023-05-10T05:58:52;3.05;;;1.42;;
9485;SDS011;4781;48.776;9.200;2023-05-10T06:01:20;2.20;;;1.22;;
9485;SDS011;4781;48.776;9.200;2023-05-10T06:03:47;2.58;;;1.15;;
9485;SDS011;4781;48.776;9.200;2023-05-10T06:06:15;3.75;;;1.12;;
9485;SDS011;4781;48.776;9.200;2023-05-10T06:08:43;2.50;;;1.30;;
9485;SDS011;4781;48.776;9.200;2023-05-10T06:11:10;1.77;;;0.98;;
9485;SDS011;4781;48.776;9.200;2023-05-10T06:13:38;2.37;;;1.12;;
9485;SDS011;4781;48.776;9.200;2023-05-10T06:16:05;3.72;;;1.20;;
9485;SDS011;4781;48.776;9.200;2023-05-10T06:18:33;2.22;;;1.10;;
9485;SDS011;4781;48.776;9.200;2023-05-10T06:21:01;3.25;;;1.10;;
9485;SDS011;4781;48.776;9.200;2023-05-10T06:23:28;3.08;;;1.40;;
9485;SDS011;4781;48.776;9.200;2023-05-10T06:25:56;6.35;;;1.20;;
9485;SDS011;4781;48.776;9.200;2023-05-10T06:28:24;6.10;;;1.62;;
9485;SDS011;4781;48.776;9.200;2023-05-10T06:30:51;4.60;;;1.50;;
9485;SDS011;4781;48.776;9.200;2023-05-10T06:33:19;1.98;;;1.20;;
9485;SDS011;4781;48.776;9.200;2023-05-10T06:35:47;4.33;;;1.40;;
9485;SDS011;4781;48.776;9.200;2023-05-10T06:38:15;2.42;;;1.22;;
9485;SDS011;4781;48.776;9.200;2023-05-10T06:40:42;2.60;;;1.30;;
9485;SDS011;4781;48.776;9.200;2023-05-10T06:43:10;4.05;;;1.52;;
9485;SDS011;4781;48.776;9.200;2023-05-10T06:45:38;3.40;;;1.20;;
9485;SDS011;4781;48.776;9.200;2023-05-10T06:48:06;3.95;;;1.57;;
9485;SDS011;4781;48.776;9.200;2023-05-10T06:50:34;2.77;;;1.40;;
9485;SDS011;4781;48.776;9.200;2023-05-10T06:53:02;3.60;;;1.40;;
9485;SDS011;4781;48.776;9.200;2023-05-10T06:55:29;3.33;;;1.30;;
9485;SDS011;4781;48.776;9.200;2023-05-10T06:57:57;6.15;;;1.35;;
9485;SDS011;4781;48.776;9.200;2023-05-10T07:00:25;3.27;;;1.32;;
9485;SDS011;4781;48.776;9.200;2023-05-10T07:02:52;2.55;;;1.37;;
9485;SDS011;4781;48.776;9.200;2023-05-10T07:05:20;2.70;;;1.20;;
9485;SDS011;4781;48.776;9.200;2023-05-10T07:07:48;2.15;;;0.95;;
9485;SDS011;4781;48.776;9.200;2023-05-10T07:10:16;3.58;;;1.42;;
9485;SDS011;4781;48.776;9.200;2023-05-10T07:12:43;1.82;;;1.07;;
9485;SDS011;4781;48.776;9.200;2023-05-10T07:15:11;2.85;;;1.52;;
9485;SDS011;4781;48.776;9.200;2023-05-10T07:17:39;4.92;;;1.30;;
9485;SDS011;4781;48.776;9.200;2023-05-10T07:20:06;1.62;;;1.05;;
9485;SDS011;4781;48.776;9.200;2023-05-10T07:22:35;1.87;;;1.10;;
9485;SDS011;4781;48.776;9.200;2023-05-10T07:25:02;2.17;;;1.10;;
9485;SDS011;4781;48.776;9.200;2023-05-10T07:27:30;2.20;;;1.20;;
9485;SDS011;4781;48.776;9.200;2023-05-10T07:29:58;3.58;;;1.30;;
9485;SDS011;4781;48.776;9.200;2023-05-10T07:32:26;2.65;;;1.15;;
9485;SDS011;4781;48.776;9.200;2023-05-10T07:34:53;2.75;;;1.30;;
9485;SDS011;4781;48.776;9.200;2023-05-10T07:37:21;4.92;;;1.30;;
9485;SDS011;4781;48.776;9.200;2023-05-10T07:39:49;3.67;;;1.25;;
9485;SDS011;4781;48.776;9.200;2023-05-10T07:42:16;3.47;;;1.22;;
9485;SDS011;4781;48.776;9.200;2023-05-10T07:44:44;2.22;;;1.17;;
9485;SDS011;4781;48.776;9.200;2023-05-10T07:47:11;2.40;;;1.20;;
9485;SDS011;4781;48.776;9.200;2023-05-10T07:49:39;6.67;;;1.37;;
9485;SDS011;4781;48.776;9.200;2023-05-10T07:52:07;2.05;;;1.10;;
9485;SDS011;4781;48.776;9.200;2023-05-10T07:54:34;2.25;;;1.00;;
9485;SDS011;4781;48.776;9.200;2023-05-10T07:57:02;2.10;;;1.00;;
9485;SDS011;4781;48.776;9.200;2023-05-10T07:59:29;2.30;;;0.90;;
9485;SDS011;4781;48.776;9.200;2023-05-10T08:01:57;1.85;;;1.05;;
9485;SDS011;4781;48.776;9.200;2023-05-10T08:04:26;2.02;;;0.80;;
9485;SDS011;4781;48.776;9.200;2023-05-10T08:06:53;1.20;;;0.80;;
9485;SDS011;4781;48.776;9.200;2023-05-10T08:09:21;1.80;;;1.10;;
9485;SDS011;4781;48.776;9.200;2023-05-10T08:11:49;1.82;;;0.80;;
9485;SDS011;4781;48.776;9.200;2023-05-10T08:14:17;2.35;;;1.00;;
9485;SDS011;4781;48.776;9.200;2023-05-10T08:16:45;2.75;;;1.10;;
9485;SDS011;4781;48.776;9.200;2023-05-10T08:19:13;1.98;;;0.80;;
9485;SDS011;4781;48.776;9.200;2023-05-10T08:21:42;2.00;;;0.85;;
9485;SDS011;4781;48.776;9.200;2023-05-10T08:24:10;1.90;;;0.88;;
9485;SDS011;4781;48.776;9.200;2023-05-10T08:26:37;1.57;;;0.90;;
9485;SDS011;4781;48.776;9.200;2023-05-10T08:29:05;4.15;;;1.15;;
9485;SDS011;4781;48.776;9.200;2023-05-10T08:31:33;4.22;;;0.90;;
9485;SDS011;4781;48.776;9.200;2023-05-10T08:34:00;1.40;;;0.80;;
9485;SDS011;4781;48.776;9.200;2023-05-10T08:36:28;1.35;;;0.70;;
9485;SDS011;4781;48.776;9.200;2023-05-10T08:38:56;1.55;;;0.80;;
9485;SDS011;4781;48.776;9.200;2023-05-10T08:41:23;1.27;;;0.80;;
9485;SDS011;4781;48.776;9.200;2023-05-10T08:43:52;1.60;;;0.80;;
9485;SDS011;4781;48.776;9.200;2023-05-10T08:46:21;0.82;;;0.50;;
9485;SDS011;4781;48.776;9.200;2023-05-10T08:48:50;1.67;;;0.98;;
9485;SDS011;4781;48.776;9.200;2023-05-10T08:51:19;3.40;;;0.80;;
9485;SDS011;4781;48.776;9.200;2023-05-10T08:53:48;1.55;;;0.85;;
9485;SDS011;4781;48.776;9.200;2023-05-10T08:56:15;2.30;;;1.10;;
9485;SDS011;4781;48.776;9.200;2023-05-10T08:58:44;1.62;;;0.82;;
9485;SDS011;4781;48.776;9.200;2023-05-10T09:01:11;1.50;;;0.90;;
9485;SDS011;4781;48.776;9.200;2023-05-10T09:03:40;2.27;;;0.90;;
9485;SDS011;4781;48.776;9.200;2023-05-10T09:06:08;1.32;;;0.80;;
9485;SDS011;4781;48.776;9.200;2023-05-10T09:08:37;3.50;;;0.80;;
9485;SDS011;4781;48.776;9.200;2023-05-10T09:11:05;1.30;;;0.75;;
9485;SDS011;4781;48.776;9.200;2023-05-10T09:13:34;1.85;;;0.80;;
9485;SDS011;4781;48.776;9.200;2023-05-10T09:16:03;3.80;;;1.50;;
9485;SDS011;4781;48.776;9.200;2023-05-10T09:18:31;1.72;;;0.80;;
9485;SDS011;4781;48.776;9.200;2023-05-10T09:20:58;1.47;;;0.70;;
9485;SDS011;4781;48.776;9.200;2023-05-10T09:23:26;1.47;;;0.80;;
9485;SDS011;4781;48.776;9.200;2023-05-10T09:26:02;1.52;;;0.88;;
9485;SDS011;4781;48.776;9.200;2023-05-10T09:28:33;2.20;;;0.72;;
9485;SDS011;4781;48.776;9.200;2023-05-10T09:31:03;2.05;;;0.80;;
9485;SDS011;4781;48.776;9.200;2023-05-10T09:33:32;3.77;;;0.70;;
9485;SDS011;4781;48.776;9.200;2023-05-10T09:36:11;2.25;;;0.72;;
9485;SDS011;4781;48.776;9.200;2023-05-10T09:38:44;0.70;;;0.50;;
9485;SDS011;4781;48.776;9.200;2023-05-10T09:41:18;1.07;;;0.70;;
9485;SDS011;4781;48.776;9.200;2023-05-10T09:43:47;2.75;;;0.82;;
9485;SDS011;4781;48.776;9.200;2023-05-10T09:46:15;3.67;;;0.90;;
9485;SDS011;4781;48.776;9.200;2023-05-10T09:48:44;0.90;;;0.60;;
9485;SDS011;4781;48.776;9.200;2023-05-10T09:51:22;1.47;;;0.82;;
9485;SDS011;4781;48.776;9.200;2023-05-10T09:56:41;1.65;;;0.60;;
9485;SDS011;4781;48.776;9.200;2023-05-10T09:59:10;0.80;;;0.60;;
9485;SDS011;4781;48.776;9.200;2023-05-10T10:01:38;1.75;;;0.50;;
9485;SDS011;4781;48.776;9.200;2023-05-10T10:04:06;0.55;;;0.42;;
9485;SDS011;4781;48.776;9.200;2023-05-10T10:06:36;0.75;;;0.60;;
9485;SDS011;4781;48.776;9.200;2023-05-10T10:09:06;2.02;;;0.50;;
9485;SDS011;4781;48.776;9.200;2023-05-10T10:11:35;2.33;;;0.80;;
9485;SDS011;4781;48.776;9.200;2023-05-10T10:14:03;1.70;;;0.70;;
9485;SDS011;4781;48.776;9.200;2023-05-10T10:16:32;2.37;;;0.60;;
9485;SDS011;4781;48.776;9.200;2023-05-10T10:18:59;0.88;;;0.57;;
9485;SDS011;4781;48.776;9.200;2023-05-10T10:21:27;1.22;;;0.60;;
9485;SDS011;4781;48.776;9.200;2023-05-10T10:23:56;1.42;;;0.80;;
9485;SDS011;4781;48.776;9.200;2023-05-10T10:26:24;3.62;;;0.72;;
9485;SDS011;4781;48.776;9.200;2023-05-10T10:29:10;5.75;;;0.70;;
9485;SDS011;4781;48.776;9.200;2023-05-10T10:31:55;2.30;;;0.70;;
9485;SDS011;4781;48.776;9.200;2023-05-10T10:34:40;1.57;;;0.60;;
9485;SDS011;4781;48.776;9.200;2023-05-10T10:37:08;1.47;;;0.60;;
9485;SDS011;4781;48.776;9.200;2023-05-10T10:39:35;1.45;;;0.60;;
9485;SDS011;4781;48.776;9.200;2023-05-10T10:42:03;1.98;;;0.60;;
9485;SDS011;4781;48.776;9.200;2023-05-10T10:49:38;1.27;;;0.68;;
9485;SDS011;4781;48.776;9.200;2023-05-10T10:52:14;1.02;;;0.60;;
9485;SDS011;4781;48.776;9.200;2023-05-10T10:57:30;1.02;;;0.60;;
9485;SDS011;4781;48.776;9.200;2023-05-10T11:03:05;0.80;;;0.50;;
9485;SDS011;4781;48.776;9.200;2023-05-10T11:05:34;1.42;;;0.70;;
9485;SDS011;4781;48.776;9.200;2023-05-10T11:08:08;0.60;;;0.50;;
9485;SDS011;4781;48.776;9.200;2023-05-10T11:10:38;1.22;;;0.60;;
9485;SDS011;4781;48.776;9.200;2023-05-10T11:13:07;0.85;;;0.45;;
9485;SDS011;4781;48.776;9.200;2023-05-10T11:15:38;0.93;;;0.60;;
9485;SDS011;4781;48.776;9.200;2023-05-10T11:18:19;3.10;;;0.60;;
9485;SDS011;4781;48.776;9.200;2023-05-10T11:23:19;1.05;;;0.60;;
9485;SDS011;4781;48.776;9.200;2023-05-10T11:25:47;1.77;;;0.60;;
9485;SDS011;4781;48.776;9.200;2023-05-10T11:28:19;1.80;;;0.68;;
9485;SDS011;4781;48.776;9.200;2023-05-10T11:30:46;1.37;;;0.60;;
9485;SDS011;4781;48.776;9.200;2023-05-10T11:33:15;1.37;;;0.80;;
9485;SDS011;4781;48.776;9.200;2023-05-10T11:35:45;5.30;;;0.80;;
9485;SDS011;4781;48.776;9.200;2023-05-10T11:38:13;2.30;;;0.70;;
9485;SDS011;4781;48.776;9.200;2023-05-10T11:40:41;0.85;;;0.60;;
9485;SDS011;4781;48.776;9.200;2023-05-10T11:43:09;1.40;;;0.72;;
9485;SDS011;4781;48.776;9.200;2023-05-10T11:45:37;0.72;;;0.50;;
9485;SDS011;4781;48.776;9.200;2023-05-10T11:48:06;1.67;;;0.78;;
9485;SDS011;4781;48.776;9.200;2023-05-10T11:50:34;0.72;;;0.60;;
9485;SDS011;4781;48.776;9.200;2023-05-10T11:53:02;1.67;;;0.80;;
9485;SDS011;4781;48.776;9.200;2023-05-10T11:55:30;2.15;;;0.65;;
9485;SDS011;4781;48.776;9.200;2023-05-10T11:58:00;0.93;;;0.60;;
9485;SDS011;4781;48.776;9.200;2023-05-10T12:00:28;1.57;;;0.78;;
9485;SDS011;4781;48.776;9.200;2023-05-10T12:02:57;2.25;;;0.80;;
9485;SDS011;4781;48.776;9.200;2023-05-10T12:05:24;2.72;;;0.70;;
9485;SDS011;4781;48.776;9.200;2023-05-10T12:07:52;1.77;;;0.80;;
9485;SDS011;4781;48.776;9.200;2023-05-10T12:10:25;1.10;;;0.70;;
9485;SDS011;4781;48.776;9.200;2023-05-10T12:12:52;1.32;;;0.70;;
9485;SDS011;4781;48.776;9.200;2023-05-10T12:15:21;1.37;;;0.80;;
9485;SDS011;4781;48.776;9.200;2023-05-10T12:17:51;2.92;;;0.88;;
9485;SDS011;4781;48.776;9.200;2023-05-10T12:20:19;1.82;;;0.70;;
9485;SDS011;4781;48.776;9.200;2023-05-10T12:22:49;2.77;;;0.90;;
9485;SDS011;4781;48.776;9.200;2023-05-10T12:25:20;2.00;;;0.80;;
9485;SDS011;4781;48.776;9.200;2023-05-10T12:27:53;3.20;;;0.95;;
9485;SDS011;4781;48.776;9.200;2023-05-10T12:30:22;3.37;;;0.90;;
9485;SDS011;4781;48.776;9.200;2023-05-10T12:32:59;2.77;;;0.70;;
9485;SDS011;4781;48.776;9.200;2023-05-10T12:35:32;3.17;;;0.90;;
9485;SDS011;4781;48.776;9.200;2023-05-10T12:37:59;1.35;;;0.72;;
9485;SDS011;4781;48.776;9.200;2023-05-10T12:40:27;1.07;;;0.70;;
9485;SDS011;4781;48.776;9.200;2023-05-10T12:42:55;1.55;;;0.85;;
9485;SDS011;4781;48.776;9.200;2023-05-10T12:45:22;2.08;;;0.70;;
9485;SDS011;4781;48.776;9.200;2023-05-10T12:47:50;2.20;;;0.75;;
9485;SDS011;4781;48.776;9.200;2023-05-10T12:50:17;2.27;;;0.80;;
9485;SDS011;4781;48.776;9.200;2023-05-10T12:52:45;2.52;;;0.80;;
9485;SDS011;4781;48.776;9.200;2023-05-10T12:55:13;1.32;;;0.60;;
9485;SDS011;4781;48.776;9.200;2023-05-10T12:57:41;3.92;;;0.78;;
9485;SDS011;4781;48.776;9.200;2023-05-10T13:00:08;1.47;;;1.00;;
9485;SDS011;4781;48.776;9.200;2023-05-10T13:02:36;7.03;;;0.90;;
9485;SDS011;4781;48.776;9.200;2023-05-10T13:05:04;2.40;;;0.98;;
9485;SDS011;4781;48.776;9.200;2023-05-10T13:07:32;2.55;;;0.70;;
9485;SDS011;4781;48.776;9.200;2023-05-10T13:10:00;2.98;;;0.70;;
9485;SDS011;4781;48.776;9.200;2023-05-10T13:12:27;1.45;;;0.78;;
9485;SDS011;4781;48.776;9.200;2023-05-10T13:14:55;2.00;;;0.80;;
9485;SDS011;4781;48.776;9.200;2023-05-10T13:17:23;1.75;;;1.02;;
9485;SDS011;4781;48.776;9.200;2023-05-10T13:19:51;3.15;;;0.90;;
9485;SDS011;4781;48.776;9.200;2023-05-10T13:22:19;2.12;;;0.82;;
9485;SDS011;4781;48.776;9.200;2023-05-10T13:24:47;1.27;;;0.75;;
9485;SDS011;4781;48.776;9.200;2023-05-10T13:27:14;1.30;;;0.90;;
9485;SDS011;4781;48.776;9.200;2023-05-10T13:29:42;3.70;;;0.90;;
9485;SDS011;4781;48.776;9.200;2023-05-10T13:32:09;1.85;;;0.80;;
9485;SDS011;4781;48.776;9.200;2023-05-10T13:34:37;1.40;;;0.80;;
9485;SDS011;4781;48.776;9.200;2023-05-10T13:37:05;1.45;;;0.70;;
9485;SDS011;4781;48.776;9.200;2023-05-10T13:39:32;2.20;;;0.80;;
9485;SDS011;4781;48.776;9.200;2023-05-10T13:42:00;3.62;;;0.90;;
9485;SDS011;4781;48.776;9.200;2023-05-10T13:44:28;1.77;;;0.80;;
9485;SDS011;4781;48.776;9.200;2023-05-10T13:46:56;1.95;;;0.85;;
9485;SDS011;4781;48.776;9.200;2023-05-10T13:49:24;3.70;;;1.05;;
9485;SDS011;4781;48.776;9.200;2023-05-10T13:51:51;3.72;;;0.90;;
9485;SDS011;4781;48.776;9.200;2023-05-10T13:54:19;1.30;;;0.60;;
9485;SDS011;4781;48.776;9.200;2023-05-10T13:56:47;0.78;;;0.62;;
9485;SDS011;4781;48.776;9.200;2023-05-10T13:59:15;3.37;;;1.12;;
9485;SDS011;4781;48.776;9.200;2023-05-10T14:01:43;1.32;;;0.70;;
9485;SDS011;4781;48.776;9.200;2023-05-10T14:04:11;2.10;;;0.90;;
9485;SDS011;4781;48.776;9.200;2023-05-10T14:06:38;2.25;;;0.78;;
9485;SDS011;4781;48.776;9.200;2023-05-10T14:09:06;1.52;;;0.62;;
9485;SDS011;4781;48.776;9.200;2023-05-10T14:11:33;3.22;;;1.05;;
9485;SDS011;4781;48.776;9.200;2023-05-10T14:14:01;1.72;;;0.80;;
9485;SDS011;4781;48.776;9.200;2023-05-10T14:16:29;2.40;;;0.85;;
9485;SDS011;4781;48.776;9.200;2023-05-10T14:18:56;2.15;;;0.80;;
9485;SDS011;4781;48.776;9.200;2023-05-10T14:21:24;1.25;;;0.70;;
9485;SDS011;4781;48.776;9.200;2023-05-10T14:23:52;5.10;;;0.90;;
9485;SDS011;4781;48.776;9.200;2023-05-10T14:26:20;1.22;;;0.60;;
9485;SDS011;4781;48.776;9.200;2023-05-10T14:28:48;3.27;;;0.95;;
9485;SDS011;4781;48.776;9.200;2023-05-10T14:31:15;4.22;;;0.80;;
9485;SDS011;4781;48.776;9.200;2023-05-10T14:33:44;1.47;;;0.70;;
9485;SDS011;4781;48.776;9.200;2023-05-10T14:36:13;2.80;;;1.10;;
9485;SDS011;4781;48.776;9.200;2023-05-10T14:38:41;2.20;;;0.82;;
9485;SDS011;4781;48.776;9.200;2023-05-10T14:41:09;2.33;;;0.80;;
9485;SDS011;4781;48.776;9.200;2023-05-10T14:43:38;5.65;;;0.85;;
9485;SDS011;4781;48.776;9.200;2023-05-10T14:46:06;6.12;;;0.90;;
9485;SDS011;4781;48.776;9.200;2023-05-10T14:48:34;2.05;;;0.72;;
9485;SDS011;4781;48.776;9.200;2023-05-10T14:51:02;2.60;;;0.70;;
9485;SDS011;4781;48.776;9.200;2023-05-10T14:53:29;4.70;;;0.90;;
9485;SDS011;4781;48.776;9.200;2023-05-10T14:55:58;1.55;;;0.60;;
9485;SDS011;4781;48.776;9.200;2023-05-10T14:58:27;1.60;;;0.80;;
9485;SDS011;4781;48.776;9.200;2023-05-10T15:00:56;2.30;;;0.70;;
9485;SDS011;4781;48.776;9.200;2023-05-10T15:03:23;2.92;;;1.00;;
9485;SDS011;4781;48.776;9.200;2023-05-10T15:05:51;2.08;;;0.75;;
9485;SDS011;4781;48.776;9.200;2023-05-10T15:08:19;1.92;;;0.78;;
9485;SDS011;4781;48.776;9.200;2023-05-10T15:10:46;2.05;;;0.70;;
9485;SDS011;4781;48.776;9.200;2023-05-10T15:13:14;4.42;;;0.70;;
9485;SDS011;4781;48.776;9.200;2023-05-10T15:15:41;1.55;;;0.80;;
9485;SDS011;4781;48.776;9.200;2023-05-10T15:18:09;2.47;;;0.55;;
9485;SDS011;4781;48.776;9.200;2023-05-10T15:20:37;2.83;;;0.90;;
9485;SDS011;4781;48.776;9.200;2023-05-10T15:23:04;2.98;;;0.80;;
9485;SDS011;4781;48.776;9.200;2023-05-10T15:25:32;2.85;;;1.00;;
9485;SDS011;4781;48.776;9.200;2023-05-10T15:28:03;2.90;;;1.00;;
9485;SDS011;4781;48.776;9.200;2023-05-10T15:30:31;0.80;;;0.50;;
9485;SDS011;4781;48.776;9.200;2023-05-10T15:33:04;1.52;;;0.70;;
9485;SDS011;4781;48.776;9.200;2023-05-10T15:35:28;4.35;;;1.12;;
9485;SDS011;4781;48.776;9.200;2023-05-10T15:37:56;2.37;;;0.70;;
9485;SDS011;4781;48.776;9.200;2023-05-10T15:40:23;1.55;;;0.70;;
9485;SDS011;4781;48.776;9.200;2023-05-10T15:42:51;1.37;;;0.70;;
9485;SDS011;4781;48.776;9.200;2023-05-10T15:45:19;2.37;;;0.98;;
9485;SDS011;4781;48.776;9.200;2023-05-10T15:47:46;2.40;;;0.60;;
9485;SDS011;4781;48.776;9.200;2023-05-10T15:50:14;4.15;;;0.70;;
9485;SDS011;4781;48.776;9.200;2023-05-10T15:52:42;3.00;;;1.02;;
9485;SDS011;4781;48.776;9.200;2023-05-10T15:55:10;2.95;;;0.80;;